createdAt,value
2017-05-04T00:02:29.526Z,66.95
2017-05-04T00:04:59.120Z,32.50
2017-05-04T00:07:30.395Z,112.97
2017-05-04T00:10:00.071Z,67.63
2017-05-04T00:12:29.619Z,47.07
2017-05-04T00:14:59.483Z,36.88
2017-05-04T00:17:29.762Z,44.02
2017-05-04T00:19:59.343Z,100.28
2017-05-04T00:22:28.918Z,54.85
2017-05-04T00:24:59.331Z,39.78
2017-05-04T00:27:28.927Z,83.98
2017-05-04T00:29:58.483Z,69.08
2017-05-04T00:32:28.154Z,57.43
2017-05-04T00:34:58.438Z,53.43
2017-05-04T00:37:27.986Z,115.32
2017-05-04T00:39:58.303Z,41.25
2017-05-04T00:42:28.003Z,39.00
2017-05-04T00:44:57.563Z,35.28
2017-05-04T00:47:27.142Z,70.90
2017-05-04T00:49:56.699Z,40.07
2017-05-04T00:52:26.242Z,43.05
2017-05-04T00:54:56.546Z,60.23
2017-05-04T00:57:26.090Z,44.90
2017-05-04T00:59:56.682Z,63.93
2017-05-04T01:02:26.230Z,66.55
2017-05-04T01:04:55.907Z,50.80
2017-05-04T01:07:26.184Z,27.32
2017-05-04T01:09:55.725Z,25.73
2017-05-04T01:12:25.271Z,56.45
2017-05-04T01:14:54.846Z,47.02
2017-05-04T01:17:25.365Z,35.08
2017-05-04T01:19:54.910Z,48.13
2017-05-04T01:22:25.502Z,50.33
2017-05-04T01:24:55.786Z,27.65
2017-05-04T01:27:25.358Z,28.30
2017-05-04T01:29:55.958Z,36.88
2017-05-04T01:32:25.542Z,26.00
2017-05-04T01:34:55.086Z,33.10
2017-05-04T01:37:25.411Z,113.43
2017-05-04T01:39:55.714Z,26.42
2017-05-04T01:42:25.294Z,30.77
2017-05-04T01:44:54.926Z,23.52
2017-05-04T01:47:24.486Z,24.47
2017-05-04T01:49:54.034Z,32.78
2017-05-04T01:52:23.590Z,54.95
2017-05-04T01:54:53.146Z,33.78
2017-05-04T01:57:22.758Z,32.00
2017-05-04T01:59:52.334Z,46.23
2017-05-04T02:02:21.877Z,32.88
2017-05-04T02:04:52.191Z,22.42
2017-05-04T02:07:21.793Z,48.55
2017-05-04T02:09:51.342Z,33.82
2017-05-04T02:12:20.894Z,28.17
2017-05-04T02:14:50.425Z,22.93
2017-05-04T02:17:20.734Z,17.32
2017-05-04T02:19:51.185Z,24.37
2017-05-04T02:22:21.509Z,18.15
2017-05-04T02:24:51.789Z,21.48
2017-05-04T02:27:21.425Z,31.62
2017-05-04T02:29:51.845Z,15.02
2017-05-04T02:32:21.694Z,30.00
2017-05-04T02:34:51.253Z,14.85
2017-05-04T02:37:20.937Z,19.25
2017-05-04T02:39:51.393Z,14.25
2017-05-04T02:42:20.945Z,14.95
2017-05-04T02:44:50.509Z,21.72
2017-05-04T02:47:20.833Z,14.25
2017-05-04T02:49:50.349Z,19.07
2017-05-04T02:52:20.640Z,34.22
2017-05-04T02:54:50.181Z,21.68
2017-05-04T02:57:20.673Z,29.92
2017-05-04T02:59:50.440Z,19.80
2017-05-04T03:02:20.361Z,24.00
2017-05-04T03:04:50.814Z,20.60
2017-05-04T03:07:20.441Z,11.23
2017-05-04T03:09:49.972Z,11.43
2017-05-04T03:12:20.268Z,11.80
2017-05-04T03:14:49.864Z,9.85
2017-05-04T03:17:19.689Z,7.88
2017-05-04T03:19:49.299Z,9.30
2017-05-04T03:22:18.905Z,8.77
2017-05-04T03:24:49.341Z,8.53
2017-05-04T03:27:19.652Z,12.57
2017-05-04T03:29:49.264Z,9.82
2017-05-04T03:32:19.713Z,12.00
2017-05-04T03:34:50.225Z,12.37
2017-05-04T03:37:21.148Z,13.38
2017-05-04T03:39:50.764Z,16.23
2017-05-04T03:42:21.044Z,9.73
2017-05-04T03:44:50.688Z,10.12
2017-05-04T03:47:20.228Z,6.42
2017-05-04T03:49:49.804Z,4.25
2017-05-04T03:52:19.640Z,5.23
2017-05-04T03:54:49.172Z,4.15
2017-05-04T03:57:19.232Z,3.92
2017-05-04T03:59:48.756Z,4.05
2017-05-04T04:02:18.296Z,6.25
2017-05-04T04:04:47.948Z,6.00
2017-05-04T04:07:17.560Z,5.97
2017-05-04T04:09:48.225Z,5.85
2017-05-04T04:12:17.800Z,6.15
2017-05-04T04:14:47.332Z,6.42
2017-05-04T04:17:16.908Z,7.47
2017-05-04T04:19:46.439Z,8.45
2017-05-04T04:22:16.024Z,8.42
2017-05-04T04:24:46.320Z,6.35
2017-05-04T04:27:16.172Z,6.42
2017-05-04T04:29:46.584Z,6.02
2017-05-04T04:32:16.120Z,8.35
2017-05-04T04:34:45.700Z,6.40
2017-05-04T04:37:16.668Z,7.05
2017-05-04T04:39:46.240Z,8.97
2017-05-04T04:42:15.867Z,10.83
2017-05-04T04:44:45.543Z,8.07
2017-05-04T04:47:15.260Z,6.47
2017-05-04T04:49:44.971Z,5.22
2017-05-04T04:52:14.567Z,6.45
2017-05-04T04:54:44.116Z,10.55
2017-05-04T04:57:14.751Z,6.37
2017-05-04T04:59:45.231Z,12.60
2017-05-04T05:02:15.759Z,8.93
2017-05-04T05:04:45.319Z,9.57
2017-05-04T05:07:14.855Z,9.13
2017-05-04T05:09:44.511Z,8.82
2017-05-04T05:12:15.767Z,10.68
2017-05-04T05:14:45.871Z,11.95
2017-05-04T05:17:15.415Z,14.00
2017-05-04T05:19:44.955Z,10.28
2017-05-04T05:22:14.511Z,11.78
2017-05-04T05:24:44.059Z,17.10
2017-05-04T05:27:13.663Z,21.57
2017-05-04T05:29:43.219Z,11.57
2017-05-04T05:32:12.775Z,19.33
2017-05-04T05:34:42.327Z,12.57
2017-05-04T05:37:11.995Z,12.22
2017-05-04T05:39:41.535Z,12.48
2017-05-04T05:42:11.114Z,11.38
2017-05-04T05:44:40.678Z,18.22
2017-05-04T05:47:10.323Z,17.40
2017-05-04T05:49:40.815Z,16.03
2017-05-04T05:52:10.446Z,16.42
2017-05-04T05:54:40.062Z,11.57
2017-05-04T05:57:09.598Z,13.82
2017-05-04T05:59:39.679Z,17.25
2017-05-04T06:02:09.227Z,10.10
2017-05-04T06:04:38.894Z,9.63
2017-05-04T06:07:08.418Z,8.27
2017-05-04T06:09:37.982Z,11.93
2017-05-04T06:12:08.456Z,10.02
2017-05-04T06:14:38.732Z,11.45
2017-05-04T06:17:08.622Z,10.83
2017-05-04T06:19:39.182Z,10.30
2017-05-04T06:22:08.722Z,9.17
2017-05-04T06:24:39.174Z,8.57
2017-05-04T06:27:08.702Z,9.12
2017-05-04T06:29:38.234Z,10.03
2017-05-04T06:32:07.758Z,7.27
2017-05-04T06:34:38.134Z,7.43
2017-05-04T06:37:07.658Z,7.43
2017-05-04T06:39:37.270Z,7.62
2017-05-04T06:42:06.883Z,10.20
2017-05-04T06:44:36.481Z,7.92
2017-05-04T06:47:06.031Z,7.58
2017-05-04T06:49:35.554Z,9.37
2017-05-04T06:52:05.091Z,8.42
2017-05-04T06:54:34.706Z,9.17
2017-05-04T06:57:04.246Z,9.95
2017-05-04T06:59:33.821Z,10.57
2017-05-04T07:02:03.523Z,11.27
2017-05-04T07:04:33.134Z,9.02
2017-05-04T07:07:02.677Z,9.72
2017-05-04T07:09:32.350Z,9.62
2017-05-04T07:12:01.961Z,11.13
2017-05-04T07:14:32.449Z,11.12
2017-05-04T07:17:02.017Z,9.45
2017-05-04T07:19:32.205Z,10.82
2017-05-04T07:22:01.830Z,9.50
2017-05-04T07:24:32.142Z,9.65
2017-05-04T07:27:01.755Z,8.98
2017-05-04T07:29:31.313Z,10.93
2017-05-04T07:32:00.969Z,10.25
2017-05-04T07:34:31.382Z,10.02
2017-05-04T07:37:00.989Z,10.28
2017-05-04T07:39:30.541Z,11.58
2017-05-04T07:42:00.102Z,12.17
2017-05-04T07:44:29.705Z,13.58
2017-05-04T07:46:59.281Z,12.95
2017-05-04T07:49:28.921Z,11.03
2017-05-04T07:51:58.469Z,13.45
2017-05-04T07:54:28.037Z,12.80
2017-05-04T07:56:57.637Z,14.20
2017-05-04T07:59:27.177Z,13.70
2017-05-04T08:01:56.745Z,13.15
2017-05-04T08:04:26.357Z,16.17
2017-05-04T08:06:55.965Z,13.28
2017-05-04T08:09:26.063Z,13.98
2017-05-04T08:11:55.693Z,14.92
2017-05-04T08:14:25.293Z,14.38
2017-05-04T08:16:54.900Z,14.38
2017-05-04T08:19:24.818Z,13.45
2017-05-04T08:21:54.361Z,13.67
2017-05-04T08:24:23.905Z,15.58
2017-05-04T08:26:53.841Z,15.95
2017-05-04T08:29:23.452Z,15.55
2017-05-04T08:31:53.372Z,14.12
2017-05-04T08:34:23.660Z,14.10
2017-05-04T08:36:54.112Z,13.58
2017-05-04T08:39:23.661Z,14.55
2017-05-04T08:41:53.825Z,13.58
2017-05-04T08:44:23.480Z,14.62
2017-05-04T08:46:53.148Z,16.70
2017-05-04T08:49:22.765Z,16.68
2017-05-04T08:51:54.109Z,16.15
2017-05-04T08:54:23.653Z,16.20
2017-05-04T08:56:53.205Z,16.07
2017-05-04T08:59:22.828Z,14.85
2017-05-04T09:01:53.148Z,14.67
2017-05-04T09:04:22.700Z,14.48
2017-05-04T09:06:52.256Z,16.10
2017-05-04T09:09:21.864Z,15.43
2017-05-04T09:11:51.408Z,15.45
2017-05-04T09:14:20.972Z,14.68
2017-05-04T09:16:50.584Z,14.48
2017-05-04T09:19:20.189Z,15.12
2017-05-04T09:21:49.804Z,16.87
2017-05-04T09:24:19.400Z,15.70
2017-05-04T09:26:48.948Z,14.87
2017-05-04T09:29:18.615Z,16.85
2017-05-04T09:31:48.160Z,17.75
2017-05-04T09:34:17.840Z,17.03
2017-05-04T09:36:48.132Z,15.70
2017-05-04T09:39:17.716Z,17.13
2017-05-04T09:41:47.268Z,15.93
2017-05-04T09:44:17.560Z,17.07
2017-05-04T09:46:47.108Z,14.57
2017-05-04T09:49:17.420Z,16.25
2017-05-04T09:51:47.707Z,17.05
2017-05-04T09:54:17.344Z,16.87
2017-05-04T09:56:47.680Z,14.92
2017-05-04T09:59:17.991Z,16.03
2017-05-04T10:01:48.279Z,16.93
2017-05-04T10:04:18.331Z,16.33
2017-05-04T10:06:48.759Z,17.32
2017-05-04T10:09:20.071Z,17.20
2017-05-04T10:11:49.623Z,16.37
2017-05-04T10:14:20.551Z,16.57
2017-05-04T10:16:50.851Z,15.63
2017-05-04T10:19:20.495Z,16.07
2017-05-04T10:21:50.048Z,15.22
2017-05-04T10:24:19.695Z,17.25
2017-05-04T10:26:49.999Z,15.62
2017-05-04T10:29:20.319Z,17.42
2017-05-04T10:31:49.951Z,15.95
2017-05-04T10:34:20.267Z,17.33
2017-05-04T10:36:50.571Z,17.28
2017-05-04T10:39:20.131Z,15.97
2017-05-04T10:41:49.707Z,16.43
2017-05-04T10:44:20.127Z,17.10
2017-05-04T10:46:50.418Z,17.22
2017-05-04T10:49:20.055Z,16.02
2017-05-04T10:51:50.347Z,17.15
2017-05-04T10:54:19.919Z,15.20
2017-05-04T10:56:49.491Z,16.78
2017-05-04T10:59:20.790Z,17.66
2017-05-04T11:01:50.335Z,12.82
2017-05-04T11:04:19.946Z,8.96
2017-05-04T11:06:49.554Z,8.62
2017-05-04T11:09:20.047Z,9.00
2017-05-04T11:11:49.582Z,9.80
2017-05-04T11:14:19.299Z,11.74
2017-05-04T11:16:48.846Z,11.68
2017-05-04T11:19:18.419Z,14.70
2017-05-04T11:21:48.726Z,15.66
2017-05-04T11:24:18.342Z,14.64
2017-05-04T11:26:48.766Z,14.10
2017-05-04T11:29:18.309Z,14.46
2017-05-04T11:31:47.882Z,14.28
2017-05-04T11:34:18.162Z,14.10
2017-05-04T11:36:47.722Z,12.82
2017-05-04T11:39:18.322Z,13.46
2017-05-04T11:41:47.966Z,13.08
2017-05-04T11:44:17.505Z,12.36
2017-05-04T11:46:47.150Z,12.94
2017-05-04T11:49:16.756Z,12.72
2017-05-04T11:51:47.050Z,12.18
2017-05-04T11:54:16.702Z,11.44
2017-05-04T11:56:47.009Z,10.96
2017-05-04T11:59:16.570Z,11.08
2017-05-04T12:01:46.226Z,10.24
2017-05-04T12:04:15.769Z,9.96
2017-05-04T12:06:45.330Z,8.60
2017-05-04T12:09:14.873Z,11.00
2017-05-04T12:11:45.478Z,12.84
2017-05-04T12:14:15.769Z,11.92
2017-05-04T12:16:45.317Z,12.42
2017-05-04T12:19:15.617Z,10.08
2017-05-04T12:21:45.269Z,13.66
2017-05-04T12:24:15.549Z,16.96
2017-05-04T12:26:45.245Z,13.80
2017-05-04T12:29:14.754Z,10.88
2017-05-04T12:31:44.321Z,12.28
2017-05-04T12:34:13.874Z,11.62
2017-05-04T12:36:43.489Z,11.52
2017-05-04T12:39:13.818Z,11.34
2017-05-04T12:41:44.229Z,11.72
2017-05-04T12:44:13.845Z,12.96
2017-05-04T12:46:43.389Z,10.38
2017-05-04T12:49:12.945Z,10.48
2017-05-04T12:51:42.558Z,11.40
2017-05-04T12:54:12.105Z,11.48
2017-05-04T12:56:41.665Z,11.82
2017-05-04T12:59:11.301Z,10.52
2017-05-04T13:01:41.901Z,11.06
2017-05-04T13:04:11.445Z,11.28
2017-05-04T13:06:41.017Z,11.50
2017-05-04T13:09:10.580Z,11.86
2017-05-04T13:11:40.132Z,11.40
2017-05-04T13:14:10.597Z,10.82
2017-05-04T13:16:40.145Z,10.72
2017-05-04T13:19:09.696Z,10.78
2017-05-04T13:21:39.265Z,11.32
2017-05-04T13:24:08.878Z,10.04
2017-05-04T13:26:38.493Z,10.40
2017-05-04T13:29:08.796Z,9.16
2017-05-04T13:31:38.421Z,9.90
2017-05-04T13:34:08.020Z,11.58
2017-05-04T13:36:39.009Z,10.38
2017-05-04T13:39:08.653Z,10.14
2017-05-04T13:41:38.156Z,9.36
2017-05-04T13:44:07.724Z,10.10
2017-05-04T13:46:37.384Z,9.48
2017-05-04T13:49:06.952Z,9.94
2017-05-04T13:51:36.604Z,9.76
2017-05-04T13:54:07.028Z,11.56
2017-05-04T13:56:37.313Z,10.40
2017-05-04T13:59:06.874Z,10.14
2017-05-04T14:01:37.585Z,10.30
2017-05-04T14:04:07.176Z,9.26
2017-05-04T14:06:36.796Z,10.46
2017-05-04T14:09:06.372Z,8.90
2017-05-04T14:11:36.024Z,8.86
2017-05-04T14:14:05.557Z,8.80
2017-05-04T14:16:36.120Z,7.78
2017-05-04T14:19:05.648Z,7.50
2017-05-04T14:21:36.044Z,7.26
2017-05-04T14:24:05.572Z,8.02
2017-05-04T14:26:35.119Z,7.98
2017-05-04T14:29:04.652Z,8.28
2017-05-04T14:31:34.413Z,8.78
2017-05-04T14:34:04.755Z,7.80
2017-05-04T14:36:35.035Z,7.50
2017-05-04T14:39:04.664Z,8.00
2017-05-04T14:41:34.951Z,8.08
2017-05-04T14:44:04.507Z,8.10
2017-05-04T14:46:34.820Z,7.88
2017-05-04T14:49:05.128Z,7.30
2017-05-04T14:51:34.739Z,7.80
2017-05-04T14:54:04.283Z,8.54
2017-05-04T14:56:33.935Z,7.54
2017-05-04T14:59:03.419Z,7.30
2017-05-04T15:01:33.591Z,7.78
2017-05-04T15:04:03.858Z,7.68
2017-05-04T15:06:33.479Z,7.86
2017-05-04T15:09:03.003Z,7.64
2017-05-04T15:11:32.568Z,7.10
2017-05-04T15:14:02.091Z,7.24
2017-05-04T15:16:31.651Z,7.02
2017-05-04T15:19:01.955Z,6.32
2017-05-04T15:21:32.023Z,7.24
2017-05-04T15:24:02.395Z,7.50
2017-05-04T15:26:31.955Z,7.48
2017-05-04T15:29:01.483Z,6.38
2017-05-04T15:31:31.103Z,7.38
2017-05-04T15:34:00.715Z,6.84
2017-05-04T15:36:30.279Z,7.46
2017-05-04T15:38:59.838Z,6.16
2017-05-04T15:41:30.151Z,2.98
2017-05-04T15:43:59.695Z,3.16
2017-05-04T15:46:29.260Z,2.32
2017-05-04T15:48:58.993Z,8.62
2017-05-04T15:51:29.307Z,11.08
2017-05-04T15:53:59.636Z,8.82
2017-05-04T15:56:31.119Z,4.88
2017-05-04T15:59:00.703Z,3.58
2017-05-04T16:01:30.246Z,3.76
2017-05-04T16:03:59.798Z,4.66
2017-05-04T16:06:30.127Z,4.10
2017-05-04T16:09:00.502Z,4.12
2017-05-04T16:11:30.243Z,8.95
2017-05-04T16:14:01.591Z,7.35
2017-05-04T16:16:31.903Z,6.04
2017-05-04T16:19:01.447Z,4.57
2017-05-04T16:21:31.118Z,3.38
2017-05-04T16:24:00.735Z,3.37
2017-05-04T16:26:30.323Z,2.53
2017-05-04T16:28:59.863Z,3.15
2017-05-04T16:31:30.138Z,3.78
2017-05-04T16:33:59.778Z,3.73
2017-05-04T16:36:29.379Z,3.62
2017-05-04T16:38:58.906Z,3.23
2017-05-04T16:41:28.763Z,3.63
2017-05-04T16:43:58.806Z,3.28
2017-05-04T16:46:28.399Z,2.82
2017-05-04T16:48:58.034Z,3.40
2017-05-04T16:51:27.574Z,3.48
2017-05-04T16:53:57.098Z,3.58
2017-05-04T16:56:26.634Z,3.87
2017-05-04T16:58:56.242Z,4.62
2017-05-04T17:01:26.670Z,5.35
2017-05-04T17:03:56.206Z,5.02
2017-05-04T17:06:26.494Z,4.70
2017-05-04T17:08:56.026Z,6.63
2017-05-04T17:11:25.562Z,6.60
2017-05-04T17:13:55.102Z,6.62
2017-05-04T17:16:24.639Z,7.13
2017-05-04T17:18:54.950Z,7.28
2017-05-04T17:21:25.106Z,7.57
2017-05-04T17:23:54.658Z,8.60
2017-05-04T17:26:24.198Z,7.77
2017-05-04T17:28:54.598Z,7.87
2017-05-04T17:31:24.122Z,8.08
2017-05-04T17:33:54.730Z,8.05
2017-05-04T17:36:25.254Z,9.00
2017-05-04T17:38:54.966Z,9.03
2017-05-04T17:41:24.574Z,9.07
2017-05-04T17:43:54.117Z,8.70
2017-05-04T17:46:23.649Z,9.68
2017-05-04T17:48:53.297Z,10.15
2017-05-04T17:51:22.998Z,10.53
2017-05-04T17:53:52.549Z,10.72
2017-05-04T17:56:22.089Z,11.08
2017-05-04T17:58:51.649Z,10.33
2017-05-04T18:01:21.245Z,12.57
2017-05-04T18:03:51.529Z,12.30
2017-05-04T18:06:21.169Z,12.20
2017-05-04T18:08:50.869Z,12.18
2017-05-04T18:11:21.157Z,13.40
2017-05-04T18:13:50.793Z,11.20
2017-05-04T18:16:20.340Z,11.50
2017-05-04T18:18:49.881Z,11.02
2017-05-04T18:21:19.428Z,11.80
2017-05-04T18:23:49.013Z,11.38
2017-05-04T18:26:18.572Z,11.73
2017-05-04T18:28:48.432Z,9.97
2017-05-04T18:31:17.981Z,9.53
2017-05-04T18:33:47.521Z,10.80
2017-05-04T18:36:17.078Z,9.82
2017-05-04T18:38:46.617Z,10.20
2017-05-04T18:41:16.844Z,9.02
2017-05-04T18:43:46.480Z,10.42
2017-05-04T18:46:16.088Z,10.20
2017-05-04T18:48:45.641Z,10.12
2017-05-04T18:51:15.509Z,10.63
2017-05-04T18:53:45.072Z,11.13
2017-05-04T18:56:14.624Z,11.35
2017-05-04T18:58:44.940Z,11.37
2017-05-04T19:01:14.492Z,11.52
2017-05-04T19:03:44.057Z,27.25
2017-05-04T19:06:13.616Z,21.22
2017-05-04T19:08:43.168Z,23.65
2017-05-04T19:11:12.716Z,21.85
2017-05-04T19:13:42.268Z,22.40
2017-05-04T19:16:11.812Z,22.13
2017-05-04T19:18:41.401Z,13.23
2017-05-04T19:21:10.948Z,15.23
2017-05-04T19:23:40.520Z,17.02
2017-05-04T19:26:10.403Z,17.92
2017-05-04T19:28:39.956Z,15.93
2017-05-04T19:31:09.536Z,17.48
2017-05-04T19:33:39.896Z,14.83
2017-05-04T19:36:11.020Z,15.83
2017-05-04T19:38:41.008Z,16.87
2017-05-04T19:41:11.823Z,18.22
2017-05-04T19:43:41.899Z,18.98
2017-05-04T19:46:11.455Z,18.77
2017-05-04T19:48:41.251Z,18.37
2017-05-04T19:53:41.097Z,20.70
2017-05-04T19:56:10.919Z,19.57
2017-05-04T19:58:41.232Z,19.98
2017-05-04T20:01:10.864Z,20.92
2017-05-04T20:03:40.459Z,19.22
2017-05-04T20:06:10.751Z,23.02
2017-05-04T20:08:40.312Z,19.52
2017-05-04T20:11:09.991Z,19.83
2017-05-04T20:13:40.315Z,22.72
2017-05-04T20:16:09.859Z,21.57
2017-05-04T20:18:39.531Z,22.00
2017-05-04T20:21:09.839Z,20.55
2017-05-04T20:23:39.450Z,19.37
2017-05-04T20:26:09.011Z,22.12
2017-05-04T20:28:39.127Z,20.67
2017-05-04T20:31:08.794Z,21.23
2017-05-04T20:33:39.083Z,23.48
2017-05-04T20:36:09.010Z,25.05
2017-05-04T20:38:38.555Z,27.47
2017-05-04T20:41:08.107Z,26.17
2017-05-04T20:43:37.650Z,23.83
2017-05-04T20:46:08.039Z,26.48
2017-05-04T20:48:37.598Z,24.40
2017-05-04T20:51:07.170Z,25.63
2017-05-04T20:53:36.778Z,26.07
2017-05-04T20:56:06.338Z,25.75
2017-05-04T20:58:35.899Z,25.33
2017-05-04T21:01:06.202Z,23.80
2017-05-04T21:03:35.735Z,25.18
2017-05-04T21:06:06.018Z,25.22
2017-05-04T21:08:35.562Z,26.77
2017-05-04T21:11:05.150Z,26.55
2017-05-04T21:13:34.750Z,24.35
2017-05-04T21:16:04.286Z,29.98
2017-05-04T21:18:34.586Z,28.45
2017-05-04T21:21:04.135Z,24.28
2017-05-04T21:23:33.694Z,25.57
2017-05-04T21:26:03.662Z,26.27
2017-05-04T21:28:33.335Z,26.13
2017-05-04T21:31:03.863Z,25.98
2017-05-04T21:33:34.162Z,27.22
2017-05-04T21:36:03.882Z,24.65
2017-05-04T21:38:33.418Z,24.52
2017-05-04T21:41:02.998Z,28.17
2017-05-04T21:43:33.830Z,30.17
2017-05-04T21:46:03.362Z,29.30
2017-05-04T21:48:32.907Z,25.70
2017-05-04T21:51:02.462Z,26.27
2017-05-04T21:53:32.772Z,30.95
2017-05-04T21:56:03.078Z,29.95
2017-05-04T21:58:32.618Z,25.48
2017-05-04T22:01:02.913Z,29.60
2017-05-04T22:03:32.538Z,29.08
2017-05-04T22:06:02.825Z,29.38
2017-05-04T22:08:32.469Z,32.48
2017-05-04T22:11:02.766Z,33.23
2017-05-04T22:13:32.310Z,33.45
2017-05-04T22:16:02.605Z,33.70
2017-05-04T22:18:32.210Z,31.75
2017-05-04T22:21:02.525Z,32.23
2017-05-04T22:23:32.910Z,38.05
2017-05-04T22:26:02.468Z,34.05
2017-05-04T22:28:32.067Z,32.78
2017-05-04T22:31:01.657Z,35.85
2017-05-04T22:33:31.281Z,33.28
2017-05-04T22:36:00.897Z,36.78
2017-05-04T22:38:31.222Z,33.35
2017-05-04T22:41:01.533Z,33.77
2017-05-04T22:43:31.093Z,32.58
2017-05-04T22:46:00.638Z,33.25
2017-05-04T22:48:30.190Z,34.25
2017-05-04T22:50:59.769Z,37.30
2017-05-04T22:53:30.061Z,35.10
2017-05-04T22:55:59.685Z,37.13
2017-05-04T22:58:29.909Z,36.73
2017-05-04T23:00:59.505Z,37.58
2017-05-04T23:03:29.070Z,35.00
2017-05-04T23:05:59.365Z,31.10
2017-05-04T23:08:29.673Z,34.08
2017-05-04T23:10:59.225Z,32.62
2017-05-04T23:13:28.765Z,34.23
2017-05-04T23:15:58.342Z,30.07
2017-05-04T23:18:28.726Z,31.90
2017-05-04T23:20:59.045Z,33.17
2017-05-04T23:23:28.641Z,31.42
2017-05-04T23:25:58.241Z,33.13
2017-05-04T23:28:27.794Z,31.57
2017-05-04T23:30:57.337Z,30.87
2017-05-04T23:33:26.889Z,30.45
2017-05-04T23:35:57.181Z,34.42
2017-05-04T23:38:26.785Z,28.83
2017-05-04T23:40:56.345Z,29.48
2017-05-04T23:43:25.877Z,26.90
2017-05-04T23:45:55.525Z,27.70
2017-05-04T23:48:25.308Z,30.60
2017-05-04T23:50:54.834Z,28.47
2017-05-04T23:53:25.148Z,26.28
2017-05-04T23:55:54.748Z,30.77
2017-05-04T23:58:24.337Z,28.35
